Time;durP1;ratioP1;P1;durP2;ratioP2;P2;SDS_P1;SDS_P2;PMS_P1;PMS_P2;Temp;Humidity;BMP_temperature;BMP_pressure;BME280_temperature;BME280_humidity;BME280_pressure;Samples;Min_cycle;Max_cycle;Signal;HPM_P1;HPM_P2
2022/05/12 00:00:06;;;;;;;7.53;1.90;;;;;;;-146.64;100.00;115996.03;5089145;28;20020;-70
2022/05/12 00:02:32;;;;;;;6.00;1.60;;;;;;;-146.64;100.00;115729.00;5086510;28;20028;-70
2022/05/12 00:04:57;;;;;;;7.37;1.53;;;;;;;-146.64;100.00;115729.00;5066809;28;20024;-70
2022/05/12 00:07:23;;;;;;;6.90;1.23;;;;;;;-146.64;100.00;115996.03;5055466;28;20046;-71
2022/05/12 00:09:48;;;;;;;5.83;1.50;;;;;;;-146.64;100.00;115996.03;5089522;28;20127;-70
2022/05/12 00:12:14;;;;;;;8.50;1.70;;;;;;;-146.64;100.00;116530.09;5053553;28;20347;-70
2022/05/12 00:14:39;;;;;;;10.23;1.70;;;;;;;-146.64;100.00;116530.09;5088407;28;20024;-71
2022/05/12 00:17:05;;;;;;;8.37;1.70;;;;;;;-146.64;100.00;116530.09;5086513;28;20088;-70
2022/05/12 00:19:31;;;;;;;7.40;1.90;;;;;;;-146.64;100.00;115996.03;5073294;28;20399;-70
2022/05/12 00:21:56;;;;;;;7.27;1.50;;;;;;;-146.64;100.00;115729.00;5088894;28;20439;-70
2022/05/12 00:24:22;;;;;;;11.07;2.10;;;;;;;-146.64;100.00;115996.03;5071361;28;20407;-70
2022/05/12 00:26:47;;;;;;;10.85;1.70;;;;;;;-146.64;100.00;115996.03;5069492;28;20040;-71
2022/05/12 00:29:13;;;;;;;10.00;1.40;;;;;;;-146.64;100.00;116530.09;5071986;28;20054;-70
2022/05/12 00:31:44;;;;;;;4.70;1.57;;;;;;;-146.64;100.00;117331.34;5069416;28;20069;-70
2022/05/12 00:34:10;;;;;;;8.52;1.92;;;;;;;-146.64;100.00;117331.34;5089851;28;20060;-70
2022/05/12 00:36:36;;;;;;;6.30;1.63;;;;;;;-146.64;100.00;117331.34;5072208;28;20036;-72
2022/05/12 00:39:02;;;;;;;9.83;2.00;;;;;;;-146.64;100.00;117598.47;5091524;28;20020;-71
2022/05/12 00:41:28;;;;;;;4.40;2.03;;;;;;;-146.64;100.00;117598.47;5085760;28;20096;-70
2022/05/12 00:43:56;;;;;;;6.40;1.77;;;;;;;-146.64;100.00;117598.47;5056992;28;20218;-71
2022/05/12 00:46:24;;;;;;;5.28;1.58;;;;;;;-146.64;100.00;117598.47;5068577;28;20064;-70
2022/05/12 00:48:52;;;;;;;6.57;2.03;;;;;;;-146.64;100.00;117865.63;5073212;28;20038;-70
2022/05/12 00:51:20;;;;;;;9.07;2.17;;;;;;;-146.64;100.00;117865.63;5085985;28;20028;-70
2022/05/12 00:53:47;;;;;;;9.07;2.30;;;;;;;-146.64;100.00;117331.34;5056526;28;20032;-70
2022/05/12 00:56:15;;;;;;;5.20;1.77;;;;;;;-146.64;100.00;117331.34;5069421;28;20058;-70
2022/05/12 00:58:40;;;;;;;3.70;1.63;;;;;;;-146.64;100.00;117865.63;5056389;28;20036;-70
2022/05/12 01:01:08;;;;;;;3.67;1.63;;;;;;;-146.64;100.00;118132.78;5069817;28;20096;-70
2022/05/12 01:03:34;;;;;;;4.40;1.52;;;;;;;-146.64;100.00;117865.63;5067543;28;20024;-70
2022/05/12 01:06:02;;;;;;;7.53;1.87;;;;;;;-146.64;100.00;117865.63;5072242;28;20517;-70
2022/05/12 01:08:28;;;;;;;7.10;2.05;;;;;;;-146.64;100.00;117598.47;5072080;28;20142;-70
2022/05/12 01:10:57;;;;;;;7.30;2.13;;;;;;;-146.64;100.00;117865.63;5065897;28;20111;-70
2022/05/12 01:13:22;;;;;;;6.13;1.55;;;;;;;-146.64;100.00;117598.47;5055258;28;20157;-70
2022/05/12 01:15:59;;;;;;;9.57;2.93;;;;;;;-146.64;100.00;117598.47;5083404;28;20032;-70
2022/05/12 01:18:28;;;;;;;11.73;2.65;;;;;;;-146.64;100.00;117598.47;5090605;28;20036;-70
2022/05/12 01:20:54;;;;;;;7.40;1.80;;;;;;;-146.64;100.00;118132.78;5088041;28;20051;-70
2022/05/12 01:23:28;;;;;;;4.68;1.60;;;;;;;-146.64;100.00;118132.78;5091190;28;20035;-71
2022/05/12 01:25:59;;;;;;;6.07;1.90;;;;;;;-146.64;100.00;118399.94;5069159;28;20051;-71
2022/05/12 01:28:24;;;;;;;7.38;2.30;;;;;;;-146.64;100.00;118399.94;5087075;28;20040;-71
2022/05/12 01:30:50;;;;;;;7.93;1.87;;;;;;;-146.64;100.00;118132.78;5086855;28;20026;-70
2022/05/12 01:33:15;;;;;;;5.47;2.37;;;;;;;-146.64;100.00;118132.78;5072646;28;20040;-70
2022/05/12 01:35:42;;;;;;;3.47;1.63;;;;;;;-146.64;100.00;118399.94;5088005;28;20032;-71
2022/05/12 01:38:07;;;;;;;5.65;2.53;;;;;;;-146.64;100.00;118399.94;5090786;28;20047;-70
2022/05/12 01:40:32;;;;;;;6.68;2.13;;;;;;;-146.64;100.00;118399.94;5069870;28;20402;-70
2022/05/12 01:42:58;;;;;;;5.32;1.73;;;;;;;-146.64;100.00;118399.94;5088752;28;20367;-70
2022/05/12 01:45:23;;;;;;;5.87;1.80;;;;;;;-146.64;100.00;118402.03;5068674;28;20364;-70
2022/05/12 01:47:51;;;;;;;7.30;2.50;;;;;;;-146.64;100.00;118402.03;5090059;28;20028;-70
2022/05/12 01:50:17;;;;;;;7.18;2.35;;;;;;;-146.64;100.00;118402.03;5050443;28;20399;-71
2022/05/12 01:52:44;;;;;;;5.60;2.10;;;;;;;-146.64;100.00;118402.03;5089097;28;20020;-70
2022/05/12 01:55:12;;;;;;;;;;;;;;;-146.64;100.00;118402.03;5069850;28;20057;-70
2022/05/12 01:57:38;;;;;;;;;;;;;;;-146.64;100.00;118402.03;5069056;28;19916;-71
2022/05/12 02:00:07;;;;;;;3.80;1.55;;;;;;;-146.64;100.00;118402.03;5070179;28;20177;-71
2022/05/12 02:02:33;;;;;;;10.65;2.35;;;;;;;-146.64;100.00;118402.03;5088406;28;20032;-71
2022/05/12 02:04:58;;;;;;;7.93;2.33;;;;;;;-146.64;100.00;118402.03;5086021;28;20020;-71
2022/05/12 02:07:24;;;;;;;8.27;1.93;;;;;;;-146.64;100.00;118402.03;5087574;28;20046;-71
2022/05/12 02:09:49;;;;;;;13.00;2.57;;;;;;;-146.64;100.00;118402.03;5070870;28;20114;-71
2022/05/12 02:12:15;;;;;;;6.13;2.03;;;;;;;-146.64;100.00;118402.03;5085530;28;20786;-71
2022/05/12 02:14:42;;;;;;;9.80;2.05;;;;;;;-146.64;100.00;118402.03;5068540;28;20499;-70
2022/05/12 02:17:07;;;;;;;7.57;2.80;;;;;;;-146.64;100.00;118402.03;5038495;28;20036;-71
2022/05/12 02:19:32;;;;;;;7.13;2.20;;;;;;;-146.64;100.00;118402.03;5060160;28;20178;-71
2022/05/12 02:22:00;;;;;;;11.27;2.33;;;;;;;-146.64;100.00;118402.03;5070601;28;20101;-71
2022/05/12 02:24:27;;;;;;;12.27;2.90;;;;;;;-146.64;100.00;118402.03;5086127;28;20424;-71
2022/05/12 02:26:53;;;;;;;12.30;3.15;;;;;;;-146.64;100.00;118402.03;5087155;28;20487;-70
2022/05/12 02:29:18;;;;;;;7.78;2.50;;;;;;;-146.64;100.00;118402.03;5087235;28;20028;-71
2022/05/12 02:31:44;;;;;;;13.77;2.63;;;;;;;-146.64;100.00;118402.03;5086622;28;20028;-71
2022/05/12 02:34:09;;;;;;;12.30;2.80;;;;;;;-146.64;100.00;118402.03;5088926;28;20034;-71
2022/05/12 02:36:34;;;;;;;9.50;2.90;;;;;;;-146.64;100.00;118402.03;5068929;28;20063;-71
2022/05/12 02:39:01;;;;;;;10.55;2.35;;;;;;;-146.64;100.00;118402.03;5089539;28;20024;-71
2022/05/12 02:41:26;;;;;;;14.88;2.40;;;;;;;-146.64;100.00;118402.03;5067329;28;20382;-71
2022/05/12 02:43:52;;;;;;;14.50;3.17;;;;;;;-146.64;100.00;118402.03;5080426;28;20029;-71
2022/05/12 02:46:17;;;;;;;10.93;2.97;;;;;;;-146.64;100.00;118402.03;5068217;28;20127;-69
2022/05/12 02:48:45;;;;;;;14.33;3.13;;;;;;;-146.64;100.00;118402.03;5065480;28;20132;-69
2022/05/12 02:51:11;;;;;;;14.32;3.65;;;;;;;-146.64;100.00;118402.03;5068990;28;20499;-69
2022/05/12 02:53:36;;;;;;;16.13;4.23;;;;;;;-146.64;100.00;118402.03;5093667;28;20027;-71
2022/05/12 02:56:03;;;;;;;19.33;3.93;;;;;;;-146.64;100.00;118402.03;5090524;28;20024;-71
2022/05/12 02:58:29;;;;;;;14.25;3.60;;;;;;;-146.64;100.00;118402.03;5074065;28;20060;-69
2022/05/12 03:00:55;;;;;;;20.93;4.40;;;;;;;-146.64;100.00;118402.03;5066435;28;20491;-71
2022/05/12 03:03:20;;;;;;;15.63;4.40;;;;;;;-146.64;100.00;118402.03;5065233;28;20029;-71
2022/05/12 03:05:46;;;;;;;13.40;4.13;;;;;;;-146.64;100.00;118402.03;5073339;28;20040;-71
2022/05/12 03:08:12;;;;;;;16.20;4.65;;;;;;;-146.64;100.00;118402.03;5091324;28;20044;-71
2022/05/12 03:10:37;;;;;;;18.58;3.95;;;;;;;-146.64;100.00;118402.03;5070481;28;20043;-71
2022/05/12 03:13:04;;;;;;;19.37;5.63;;;;;;;-146.64;100.00;118402.03;5091036;28;20032;-71
2022/05/12 03:15:29;;;;;;;15.73;4.05;;;;;;;-146.64;100.00;118402.03;5072167;28;20135;-71
2022/05/12 03:17:56;;;;;;;15.77;4.05;;;;;;;-146.64;100.00;118402.03;5073430;28;20127;-71
2022/05/12 03:20:23;;;;;;;17.88;4.22;;;;;;;-146.64;100.00;118402.03;5088663;28;20067;-71
2022/05/12 03:22:49;;;;;;;17.38;4.72;;;;;;;-146.64;100.00;118402.03;5070801;28;20056;-71
2022/05/12 03:25:15;;;;;;;15.50;5.40;;;;;;;-146.64;100.00;118402.03;5072974;28;20628;-71
2022/05/12 03:27:41;;;;;;;18.80;4.95;;;;;;;-146.64;100.00;118402.03;5090788;28;20028;-71
2022/05/12 03:30:10;;;;;;;15.07;4.63;;;;;;;-146.64;100.00;118402.03;5071059;28;20135;-71
2022/05/12 03:32:36;;;;;;;20.70;4.93;;;;;;;-146.64;100.00;118402.03;5072681;28;20032;-71
2022/05/12 03:35:01;;;;;;;22.00;5.57;;;;;;;-146.64;100.00;118402.03;5072153;28;20028;-71
2022/05/12 03:37:26;;;;;;;16.53;4.70;;;;;;;-146.64;100.00;118402.03;5056338;28;20060;-69
2022/05/12 03:39:52;;;;;;;18.07;4.50;;;;;;;-146.64;100.00;118402.03;5052868;28;20036;-71
2022/05/12 03:42:18;;;;;;;15.73;5.77;;;;;;;-146.64;100.00;118402.03;5080810;28;20487;-70
2022/05/12 03:44:47;;;;;;;;;;;;;;;-146.64;100.00;118402.03;5068051;28;20028;-71
2022/05/12 03:47:21;;;;;;;15.75;5.30;;;;;;;-146.64;100.00;118402.03;5092351;28;19916;-71
2022/05/12 03:49:48;;;;;;;23.23;6.30;;;;;;;-146.64;100.00;118402.03;5083735;28;20028;-71
2022/05/12 03:52:13;;;;;;;19.83;5.45;;;;;;;-146.64;100.00;118402.03;5072045;28;20031;-71
2022/05/12 03:54:40;;;;;;;16.07;6.13;;;;;;;-146.64;100.00;118402.03;5090817;28;20391;-71
2022/05/12 03:57:06;;;;;;;15.75;5.65;;;;;;;-146.64;100.00;118402.03;5073175;28;20036;-72
2022/05/12 03:59:32;;;;;;;14.20;5.75;;;;;;;-146.64;100.00;118402.03;5071940;28;20028;-72
2022/05/12 04:01:57;;;;;;;19.67;5.40;;;;;;;-146.64;100.00;118402.03;5077696;28;20066;-71
2022/05/12 04:04:22;;;;;;;15.95;5.32;;;;;;;-146.64;100.00;118402.03;5078866;28;20028;-70
2022/05/12 04:06:48;;;;;;;18.77;6.07;;;;;;;-146.64;100.00;118402.03;5090725;28;20035;-71
2022/05/12 04:09:13;;;;;;;14.67;5.40;;;;;;;-146.64;100.00;118402.03;5068099;28;20037;-71
2022/05/12 04:11:38;;;;;;;16.85;5.57;;;;;;;-146.64;100.00;118402.03;5085961;28;20385;-71
2022/05/12 04:14:06;;;;;;;19.37;5.73;;;;;;;-146.64;100.00;118402.03;5090249;28;20363;-71
2022/05/12 04:16:32;;;;;;;14.88;5.65;;;;;;;-146.64;100.00;118402.03;5071589;28;20027;-71
2022/05/12 04:18:58;;;;;;;18.90;6.90;;;;;;;-146.64;100.00;118402.03;5083862;28;20407;-72
2022/05/12 04:21:23;;;;;;;13.10;5.23;;;;;;;-146.64;100.00;118402.03;5086505;28;20119;-71
2022/05/12 04:23:49;;;;;;;12.52;5.55;;;;;;;-146.64;100.00;118402.03;5058241;28;20555;-71
2022/05/12 04:26:14;;;;;;;17.80;5.50;;;;;;;-146.64;100.00;118402.03;5071108;28;20028;-70
2022/05/12 04:28:40;;;;;;;11.40;5.20;;;;;;;-146.64;100.00;118402.03;5066255;28;20411;-71
2022/05/12 04:31:06;;;;;;;11.90;5.68;;;;;;;-146.64;100.00;118402.03;5084098;28;20032;-71
2022/05/12 04:36:15;;;;;;;14.68;5.30;;;;;;;-146.64;100.00;118402.03;5090615;28;20517;-71
2022/05/12 04:38:42;;;;;;;16.13;5.60;;;;;;;-146.64;100.00;118402.03;5071333;28;20035;-71
2022/05/12 04:41:08;;;;;;;16.30;5.55;;;;;;;-146.64;100.00;118402.03;5069144;28;20016;-71
2022/05/12 04:43:34;;;;;;;19.95;5.70;;;;;;;-146.64;100.00;118402.03;5082189;28;20038;-71
2022/05/12 04:45:59;;;;;;;12.25;4.88;;;;;;;-146.64;100.00;118402.03;5071158;28;20110;-71
2022/05/12 04:48:26;;;;;;;14.25;4.40;;;;;;;-146.64;100.00;118402.03;5088713;28;20293;-69
2022/05/12 04:50:51;;;;;;;18.77;5.50;;;;;;;-146.64;100.00;118402.03;5054342;28;20039;-71
2022/05/12 04:53:16;;;;;;;27.03;6.87;;;;;;;-146.64;100.00;118402.03;5084546;28;20425;-69
2022/05/12 04:55:43;;;;;;;11.47;5.07;;;;;;;-146.64;100.00;118402.03;5086830;28;20024;-71
2022/05/12 04:58:08;;;;;;;13.15;4.90;;;;;;;-146.64;100.00;118402.03;5067690;28;20038;-70
2022/05/12 05:00:36;;;;;;;12.65;4.78;;;;;;;-146.64;100.00;118402.03;5054653;28;20036;-69
2022/05/12 05:03:02;;;;;;;15.05;5.07;;;;;;;-146.64;100.00;118402.03;5090278;28;20058;-70
2022/05/12 05:05:28;;;;;;;19.45;4.65;;;;;;;-146.64;100.00;118402.03;5088473;28;20031;-69
2022/05/12 05:07:54;;;;;;;17.13;4.20;;;;;;;-146.64;100.00;118402.03;5068890;28;20425;-69
2022/05/12 05:10:19;;;;;;;16.70;4.60;;;;;;;-146.64;100.00;118132.78;5085270;28;20486;-69
2022/05/12 05:12:45;;;;;;;10.10;3.83;;;;;;;-146.64;100.00;117598.47;5053143;28;20032;-70
2022/05/12 05:15:11;;;;;;;11.63;4.50;;;;;;;-146.64;100.00;117064.25;5069906;28;20033;-71
2022/05/12 05:17:37;;;;;;;13.30;4.38;;;;;;;-146.64;100.00;116797.16;5069459;28;20402;-71
2022/05/12 05:20:05;;;;;;;14.17;4.40;;;;;;;-146.64;100.00;115729.00;5067375;28;20032;-71
2022/05/12 05:22:32;;;;;;;20.85;4.38;;;;;;;-146.64;100.00;114661.13;5070505;28;20065;-72
2022/05/12 05:24:58;;;;;;;18.17;5.07;;;;;;;-146.64;100.00;112792.97;5085276;28;20050;-71
2022/05/12 05:27:23;;;;;;;9.53;4.27;;;;;;;-146.64;100.00;111459.13;5085782;28;20036;-69
2022/05/12 05:29:49;;;;;;;13.23;4.17;;;;;;;-146.64;100.00;109859.06;5084850;28;20040;-69
2022/05/12 05:32:15;;;;;;;22.88;3.92;;;;;;;-146.64;100.00;108792.72;5082624;28;20074;-69
2022/05/12 05:34:41;;;;;;;13.75;4.40;;;;;;;-146.64;100.00;109059.28;5087322;28;20520;-69
2022/05/12 05:37:06;;;;;;;15.00;3.90;;;;;;;-146.64;100.00;106927.25;5069757;28;20032;-69
2022/05/12 05:39:32;;;;;;;14.80;4.25;;;;;;;-146.64;100.00;106394.44;5087126;28;20035;-71
2022/05/12 05:42:02;;;;;;;7.63;3.73;;;;;;;-146.64;100.00;103997.56;5086367;28;20060;-71
2022/05/12 05:44:32;;;;;;;9.82;3.92;;;;;;;-146.64;100.00;102666.59;5088259;28;20039;-71
2022/05/12 05:46:58;;;;;;;7.00;3.45;;;;;;;-146.64;100.00;97347.03;5087930;28;20020;-70
2022/05/12 05:49:23;;;;;;;10.77;3.87;;;;;;;-146.64;100.00;98410.41;5088475;28;20430;-70
2022/05/12 05:54:34;;;;;;;14.15;3.90;;;;;;;-146.64;100.00;90972.78;5079317;28;20086;-70
2022/05/12 05:57:00;;;;;;;14.00;4.50;;;;;;;-146.64;100.00;76138.66;5070626;28;20081;-70
2022/05/12 05:59:25;;;;;;;9.97;2.67;;;;;;;-146.64;100.00;40113.53;5070247;28;20038;-71
2022/05/12 06:01:50;;;;;;;12.63;3.10;;;;;;;-146.64;100.00;38752.50;5089330;28;20043;-70
2022/05/12 06:04:17;;;;;;;7.50;2.80;;;;;;;-146.64;100.00;38492.63;5086644;28;20078;-71
2022/05/12 06:06:44;;;;;;;6.35;2.47;;;;;;;-146.64;100.00;38355.53;5069633;28;20028;-71
2022/05/12 06:09:09;;;;;;;10.32;2.88;;;;;;;-146.64;100.00;38335.06;5065539;28;20030;-71
2022/05/12 06:11:35;;;;;;;10.23;3.13;;;;;;;-146.64;100.00;38277.78;5090043;28;20036;-71
2022/05/12 06:14:00;;;;;;;5.43;2.20;;;;;;;-146.64;100.00;38306.44;5085470;28;20048;-71
2022/05/12 06:16:25;;;;;;;12.07;3.43;;;;;;;-146.64;100.00;38200.03;5089269;28;20134;-70
2022/05/12 06:18:51;;;;;;;8.90;2.70;;;;;;;-146.64;100.00;38238.91;5085598;28;20036;-71
2022/05/12 06:21:16;;;;;;;9.50;2.43;;;;;;;-146.64;100.00;38122.28;5087037;28;20414;-71
2022/05/12 06:23:42;;;;;;;9.43;2.80;;;;;;;-146.64;100.00;38099.78;5087389;28;20437;-71
2022/05/12 06:26:13;;;;;;;6.37;2.37;;;;;;;-146.64;100.00;38073.19;5051950;28;20035;-71
2022/05/12 06:28:45;;;;;;;9.70;2.50;;;;;;;-146.64;100.00;38040.44;5085208;28;20028;-71
2022/05/12 06:31:10;;;;;;;11.32;2.22;;;;;;;-146.64;100.00;37977.03;5061611;28;20024;-71
2022/05/12 06:33:36;;;;;;;12.20;2.50;;;;;;;-146.64;100.00;38003.63;5068950;28;20378;-71
2022/05/12 06:36:05;;;;;;;11.57;2.33;;;;;;;-146.64;100.00;37876.78;5086311;28;20062;-71
2022/05/12 06:38:31;;;;;;;7.07;2.15;;;;;;;-146.64;100.00;37876.78;5084421;28;20024;-71
2022/05/12 06:40:56;;;;;;;8.05;2.13;;;;;;;-146.64;100.00;37929.97;5070111;28;20436;-71
2022/05/12 06:43:23;;;;;;;8.30;2.17;;;;;;;-146.64;100.00;37815.41;5067884;28;20024;-71
2022/05/12 06:45:48;;;;;;;7.68;2.20;;;;;;;-146.64;100.00;37835.88;5071119;28;20044;-71
2022/05/12 06:48:15;;;;;;;6.38;2.55;;;;;;;-146.64;100.00;37925.88;5084675;28;20035;-71
2022/05/12 06:50:40;;;;;;;7.90;2.05;;;;;;;-146.64;100.00;37758.13;5081582;28;20041;-71
2022/05/12 06:53:06;;;;;;;9.32;2.67;;;;;;;-146.64;100.00;37758.13;5066999;28;20391;-71
2022/05/12 06:55:31;;;;;;;6.60;2.27;;;;;;;-146.64;100.00;37809.25;5086638;28;20067;-70
2022/05/12 06:57:57;;;;;;;7.97;2.33;;;;;;;-146.64;100.00;37749.94;5084791;28;20028;-71
2022/05/12 07:00:22;;;;;;;7.57;2.45;;;;;;;-146.64;100.00;37735.63;5062428;28;20036;-71
2022/05/12 07:02:48;;;;;;;10.07;2.13;;;;;;;-146.64;99.85;37782.66;5065563;28;20028;-73
2022/05/12 07:05:16;;;;;;;8.70;2.53;;;;;;;-146.64;100.00;37776.53;5079468;28;21869;-71
2022/05/12 07:07:43;;;;;;;9.02;1.90;;;;;;;-146.64;96.55;37786.75;5085865;28;20291;-70
2022/05/12 07:10:10;;;;;;;5.78;2.15;;;;;;;-146.64;97.57;37764.25;5086902;28;20490;-71
2022/05/12 07:12:35;;;;;;;7.28;2.05;;;;;;;-146.64;94.23;37827.69;5088069;28;20028;-70
2022/05/12 07:15:01;;;;;;;9.10;2.43;;;;;;;-146.64;92.12;37737.66;5086116;28;20122;-71
2022/05/12 07:17:26;;;;;;;6.70;2.30;;;;;;;-146.64;89.35;37741.75;5087526;28;20062;-70
2022/05/12 07:26:34;;;;;;;7.57;3.10;;;;;;;-146.64;91.82;37743.81;5080052;28;20024;-70
2022/05/12 07:28:04;;;;;;;6.15;2.10;;;;;;;-146.64;91.03;37884.97;5066853;28;20060;-70
2022/05/12 07:31:00;;;;;;;5.80;1.90;;;;;;;-146.64;83.91;37858.38;5052188;28;20075;-70
2022/05/12 07:33:15;;;;;;;9.98;2.65;;;;;;;-146.64;88.22;37844.03;5083220;28;20448;-70
2022/05/12 07:35:40;;;;;;;10.13;2.40;;;;;;;-146.64;87.95;37862.47;5091747;28;20040;-70
2022/05/12 07:38:05;;;;;;;9.17;2.87;;;;;;;-146.64;86.71;37872.69;5092516;28;20036;-71
2022/05/12 07:40:31;;;;;;;6.17;2.10;;;;;;;-146.64;91.46;37950.44;5092672;28;20513;-71
2022/05/12 07:42:56;;;;;;;10.43;2.80;;;;;;;-146.64;91.76;37940.19;5092706;28;20028;-70
2022/05/12 07:45:21;;;;;;;5.13;2.10;;;;;;;-146.64;89.32;37880.88;5089891;28;20099;-70
2022/05/12 07:47:47;;;;;;;10.20;2.10;;;;;;;-146.64;90.71;37882.91;5092386;28;20131;-70
2022/05/12 07:50:12;;;;;;;5.93;1.77;;;;;;;-146.64;91.97;37915.66;5068183;28;20580;-70
2022/05/12 07:52:37;;;;;;;14.53;1.93;;;;;;;-146.64;91.21;37958.63;5084681;28;20031;-70
2022/05/12 07:55:03;;;;;;;9.23;1.90;;;;;;;-146.64;85.78;38054.78;5089620;28;20035;-70
2022/05/12 07:57:28;;;;;;;6.83;2.27;;;;;;;-146.64;88.22;38036.34;5070461;28;20036;-70
2022/05/12 07:59:53;;;;;;;7.53;2.20;;;;;;;-146.64;94.36;38050.69;5089700;28;20074;-70
2022/05/12 08:02:20;;;;;;;7.47;2.13;;;;;;;-146.64;96.67;38155.03;5086782;28;20080;-70
2022/05/12 08:04:46;;;;;;;6.65;2.42;;;;;;;-146.64;94.67;38105.91;5089534;28;20028;-70
2022/05/12 08:07:11;;;;;;;5.40;2.05;;;;;;;-146.64;90.97;38150.94;5087473;28;20475;-70
2022/05/12 08:09:37;;;;;;;8.70;1.93;;;;;;;-146.64;86.76;38077.28;5083887;28;20036;-70
2022/05/12 08:12:02;;;;;;;4.93;1.77;;;;;;;-146.64;89.61;38099.78;5082490;28;20077;-70
2022/05/12 08:14:28;;;;;;;6.23;1.80;;;;;;;-146.64;84.82;38134.56;5076724;28;20115;-70
2022/05/12 08:16:54;;;;;;;3.70;2.03;;;;;;;-146.64;84.39;38236.88;5069421;28;20036;-71
2022/05/12 08:19:19;;;;;;;4.97;2.30;;;;;;;-146.64;83.12;38189.81;5068988;28;20396;-70
2022/05/12 08:21:44;;;;;;;9.30;2.63;;;;;;;-146.64;87.14;38146.84;5087148;28;20039;-70
2022/05/12 08:24:10;;;;;;;6.03;1.73;;;;;;;-146.64;83.79;38120.25;5089472;28;20359;-70
2022/05/12 08:26:35;;;;;;;6.97;1.80;;;;;;;-146.64;78.92;38150.94;5070530;28;20047;-71
2022/05/12 08:29:00;;;;;;;6.80;1.50;;;;;;;-146.64;76.91;38165.25;5089219;28;20081;-70
2022/05/12 08:31:29;;;;;;;10.20;2.20;;;;;;;-146.64;74.60;38208.22;5087083;28;20050;-70
2022/05/12 08:33:55;;;;;;;4.25;1.50;;;;;;;-146.64;72.83;38163.22;5089155;28;20103;-71
2022/05/12 08:36:21;;;;;;;15.67;1.60;;;;;;;-146.64;75.30;38118.19;5070847;28;20571;-70
2022/05/12 08:38:46;;;;;;;4.97;1.70;;;;;;;-146.64;71.62;38134.56;5089051;28;20549;-70
2022/05/12 08:41:31;;;;;;;9.27;1.40;;;;;;;-146.64;74.90;38077.28;5067157;28;20304;-71
2022/05/12 08:44:08;;;;;;;4.65;1.40;;;;;;;-146.64;69.69;38103.88;5085999;28;20482;-71
2022/05/12 08:46:53;;;;;;;7.88;1.80;;;;;;;-146.64;73.03;38081.38;5079625;28;20024;-70
2022/05/12 08:49:31;;;;;;;4.85;1.45;;;;;;;-146.64;71.00;38081.38;5109323;28;20602;-70
2022/05/12 08:52:07;;;;;;;;;;;;;;;-146.64;69.02;38069.09;5109938;28;20039;-71
2022/05/12 08:54:35;;;;;;;6.15;1.73;;;;;;;-146.64;67.25;38020.00;5069628;28;20295;-70
2022/05/12 08:57:05;;;;;;;6.80;1.42;;;;;;;-146.64;66.11;38005.66;5070900;28;20035;-70
2022/05/12 08:59:32;;;;;;;3.25;1.20;;;;;;;-146.64;68.30;37993.41;5063136;28;20392;-70
2022/05/12 09:02:09;;;;;;;7.07;1.90;;;;;;;-146.64;70.29;37958.63;5071005;28;20074;-70
2022/05/12 09:04:56;;;;;;;5.47;1.80;;;;;;;-146.64;64.35;37884.97;5068707;28;20028;-71
2022/05/12 09:07:28;;;;;;;6.03;1.90;;;;;;;-146.64;65.13;37938.16;5085712;28;20214;-70
2022/05/12 09:10:11;;;;;;;2.92;1.48;;;;;;;-146.64;62.99;37925.88;5082248;28;20479;-70
2022/05/12 09:12:45;;;;;;;8.68;2.28;;;;;;;-146.64;62.09;38036.34;5077616;28;20028;-71
2022/05/12 09:15:16;;;;;;;6.93;1.70;;;;;;;-146.64;63.66;38077.28;5062408;28;20054;-70
2022/05/12 09:17:48;;;;;;;7.70;1.60;;;;;;;-146.64;61.76;37909.50;5055697;28;20437;-70
2022/05/12 09:20:15;;;;;;;4.13;1.45;;;;;;;-146.64;60.25;37991.34;5076751;28;20475;-70
2022/05/12 09:22:41;;;;;;;6.72;1.52;;;;;;;-146.64;60.50;37858.38;5086028;28;20028;-70
2022/05/12 09:25:08;;;;;;;5.50;1.83;;;;;;;-146.64;60.88;37782.66;5084997;28;20176;-70
2022/05/12 09:27:37;;;;;;;7.60;1.60;;;;;;;-146.64;59.82;37854.28;5086069;28;20036;-70
2022/05/12 09:30:04;;;;;;;9.13;1.70;;;;;;;-146.64;58.25;37811.31;5084138;28;20024;-70
2022/05/12 09:32:33;;;;;;;5.15;1.52;;;;;;;-146.64;57.01;37807.22;5087201;28;20448;-70
2022/05/12 09:35:19;;;;;;;5.75;2.00;;;;;;;-146.64;56.77;37739.72;5067521;28;20675;-70
2022/05/12 09:37:45;;;;;;;9.25;2.25;;;;;;;-146.64;56.03;37766.31;5082098;28;20066;-70
2022/05/12 09:40:22;;;;;;;6.63;1.67;;;;;;;-146.64;57.42;37991.34;5065728;28;20027;-70
2022/05/12 09:43:00;;;;;;;8.23;1.80;;;;;;;-146.64;56.70;37874.72;5084155;28;20028;-71
2022/05/12 09:45:25;;;;;;;7.15;1.95;;;;;;;-146.64;57.04;37749.94;5084357;28;20024;-70
2022/05/12 09:48:07;;;;;;;2.87;1.17;;;;;;;-146.64;55.23;37614.91;5085373;28;20039;-70
2022/05/12 09:50:32;;;;;;;4.38;1.77;;;;;;;-146.64;53.34;37614.91;5065984;28;20496;-70
2022/05/12 09:53:00;;;;;;;6.47;1.40;;;;;;;-146.64;53.57;37608.78;5068001;28;20029;-70
2022/05/12 09:55:33;;;;;;;5.75;2.47;;;;;;;-146.64;50.59;37655.84;5084831;28;20742;-71
2022/05/12 09:58:35;;;;;;;8.23;1.27;;;;;;;-146.64;50.17;37571.97;5086496;28;20024;-70
2022/05/12 10:01:15;;;;;;;6.80;1.83;;;;;;;-146.64;49.45;37649.69;5082709;28;20024;-70
2022/05/12 10:09:23;;;;;;;3.70;1.38;;;;;;;-146.64;48.21;37537.19;5065295;28;20051;-70
2022/05/12 10:12:13;;;;;;;5.75;1.48;;;;;;;-146.64;49.33;37827.69;5082498;28;20035;-71
2022/05/12 10:14:57;;;;;;;4.65;1.40;;;;;;;-146.64;49.31;37700.84;5068300;28;20414;-71
2022/05/12 10:17:33;;;;;;;4.80;1.42;;;;;;;-146.64;49.26;37747.91;5051245;28;20044;-71
2022/05/12 10:20:02;;;;;;;4.57;1.17;;;;;;;-146.64;49.96;37598.56;5067170;28;20028;-70
2022/05/12 10:22:32;;;;;;;3.63;1.20;;;;;;;-146.64;46.79;37537.19;5067851;28;20028;-71
2022/05/12 10:25:16;;;;;;;3.83;1.50;;;;;;;-146.64;48.05;37553.53;5067599;28;20109;-70
2022/05/12 10:27:53;;;;;;;5.35;1.42;;;;;;;-146.64;45.69;37782.66;5084814;28;20034;-71
2022/05/12 10:30:27;;;;;;;2.92;1.00;;;;;;;-146.64;44.90;37623.09;5058432;28;20047;-70
2022/05/12 10:33:14;;;;;;;4.82;1.20;;;;;;;-146.64;46.58;37717.22;5085453;28;20028;-71
2022/05/12 10:35:52;;;;;;;7.30;1.70;;;;;;;-146.64;46.69;37582.19;5086846;28;20088;-71
2022/05/12 10:38:55;;;;;;;4.55;1.33;;;;;;;-146.64;45.46;37674.25;5087084;28;20637;-71
2022/05/12 10:41:38;;;;;;;5.97;1.63;;;;;;;-146.64;46.69;37659.94;5083481;28;20109;-71
2022/05/12 10:44:16;;;;;;;4.95;1.27;;;;;;;-146.64;46.84;37657.88;5066305;28;20035;-70
2022/05/12 10:46:58;;;;;;;4.97;1.10;;;;;;;-146.64;44.72;37602.66;5085880;28;20028;-71
2022/05/12 10:49:36;;;;;;;5.00;2.05;;;;;;;-146.64;45.30;37625.16;5070197;28;20044;-71
2022/05/12 10:52:01;;;;;;;4.13;1.02;;;;;;;-146.64;44.18;37739.72;5067855;28;20109;-71
2022/05/12 10:54:36;;;;;;;2.90;0.90;;;;;;;-146.64;44.21;37774.50;5085265;28;20479;-71
2022/05/12 10:57:19;;;;;;;5.80;1.05;;;;;;;-146.64;43.60;37694.69;5084257;28;20028;-72
2022/05/12 10:59:51;;;;;;;2.80;1.00;;;;;;;-146.64;43.33;37586.28;5060251;28;20016;-71
2022/05/12 11:02:16;;;;;;;5.93;1.02;;;;;;;-146.64;43.92;37668.09;5082742;28;20058;-72
2022/05/12 11:04:49;;;;;;;6.10;1.50;;;;;;;-146.64;44.23;37563.78;5082190;28;20051;-71
2022/05/12 11:07:32;;;;;;;7.38;1.33;;;;;;;-146.64;42.46;37537.19;5065689;28;20024;-70
2022/05/12 11:10:03;;;;;;;4.70;1.30;;;;;;;-146.64;42.61;37551.50;5049806;28;20291;-71
2022/05/12 11:12:34;;;;;;;6.10;1.30;;;;;;;-146.64;41.74;37389.91;5056725;28;20028;-71
2022/05/12 11:15:10;;;;;;;3.13;1.25;;;;;;;-146.64;41.42;37447.19;5066360;28;20333;-71
2022/05/12 11:17:47;;;;;;;4.07;1.30;;;;;;;-146.64;41.70;37244.66;5076557;28;20062;-71
2022/05/12 11:20:28;;;;;;;3.50;1.08;;;;;;;-146.64;41.18;37394.00;5063311;28;20121;-71
2022/05/12 11:23:03;;;;;;;5.05;1.30;;;;;;;-146.64;40.54;37297.84;5049294;28;20391;-71
2022/05/12 11:25:37;;;;;;;6.25;1.45;;;;;;;-146.64;41.33;37254.88;5087101;28;20024;-71
2022/05/12 11:31:29;;;;;;;3.20;1.35;;;;;;;-146.64;42.29;37598.56;5088277;28;20059;-70